sensor_id;sensor_type;location;lat;lon;timestamp;P1;durP1;ratioP1;P2;durP2;ratioP2
15968;SDS011;8085;53.472;9.794;2023-04-24T00:02:03;6.17;;;5.37;;
15968;SDS011;8085;53.472;9.794;2023-04-24T00:04:31;8.43;;;5.63;;
15968;SDS011;8085;53.472;9.794;2023-04-24T00:06:58;6.20;;;5.43;;
15968;SDS011;8085;53.472;9.794;2023-04-24T00:09:25;6.53;;;5.83;;
15968;SDS011;8085;53.472;9.794;2023-04-24T00:11:52;8.30;;;5.80;;
15968;SDS011;8085;53.472;9.794;2023-04-24T00:14:19;6.50;;;5.80;;
15968;SDS011;8085;53.472;9.794;2023-04-24T00:16:46;6.10;;;5.50;;
15968;SDS011;8085;53.472;9.794;2023-04-24T00:19:14;8.30;;;5.93;;
15968;SDS011;8085;53.472;9.794;2023-04-24T00:21:41;7.37;;;6.20;;
15968;SDS011;8085;53.472;9.794;2023-04-24T00:24:08;7.60;;;5.57;;
15968;SDS011;8085;53.472;9.794;2023-04-24T00:26:36;7.67;;;6.33;;
15968;SDS011;8085;53.472;9.794;2023-04-24T00:29:02;7.60;;;6.20;;
15968;SDS011;8085;53.472;9.794;2023-04-24T00:31:29;6.97;;;5.93;;
15968;SDS011;8085;53.472;9.794;2023-04-24T00:33:57;9.07;;;6.60;;
15968;SDS011;8085;53.472;9.794;2023-04-24T00:36:25;8.10;;;5.87;;
15968;SDS011;8085;53.472;9.794;2023-04-24T00:38:53;8.23;;;6.27;;
15968;SDS011;8085;53.472;9.794;2023-04-24T00:41:20;7.10;;;6.03;;
15968;SDS011;8085;53.472;9.794;2023-04-24T00:43:47;7.33;;;5.67;;
15968;SDS011;8085;53.472;9.794;2023-04-24T00:46:14;7.17;;;5.13;;
15968;SDS011;8085;53.472;9.794;2023-04-24T00:48:42;5.60;;;5.10;;
15968;SDS011;8085;53.472;9.794;2023-04-24T00:51:09;6.33;;;5.00;;
15968;SDS011;8085;53.472;9.794;2023-04-24T00:53:38;5.23;;;4.50;;
15968;SDS011;8085;53.472;9.794;2023-04-24T00:56:05;6.30;;;4.20;;
15968;SDS011;8085;53.472;9.794;2023-04-24T00:58:32;5.37;;;4.40;;
15968;SDS011;8085;53.472;9.794;2023-04-24T01:00:59;5.23;;;3.90;;
15968;SDS011;8085;53.472;9.794;2023-04-24T01:03:28;4.00;;;3.50;;
15968;SDS011;8085;53.472;9.794;2023-04-24T01:05:57;4.80;;;3.80;;
15968;SDS011;8085;53.472;9.794;2023-04-24T01:08:24;4.00;;;3.60;;
15968;SDS011;8085;53.472;9.794;2023-04-24T01:10:53;3.53;;;3.23;;
15968;SDS011;8085;53.472;9.794;2023-04-24T01:13:21;4.00;;;3.27;;
15968;SDS011;8085;53.472;9.794;2023-04-24T01:15:48;3.57;;;3.13;;
15968;SDS011;8085;53.472;9.794;2023-04-24T01:18:15;3.77;;;3.47;;
15968;SDS011;8085;53.472;9.794;2023-04-24T01:20:42;6.03;;;3.87;;
15968;SDS011;8085;53.472;9.794;2023-04-24T01:23:13;5.60;;;3.10;;
15968;SDS011;8085;53.472;9.794;2023-04-24T01:25:40;3.43;;;2.93;;
15968;SDS011;8085;53.472;9.794;2023-04-24T01:28:07;7.83;;;3.40;;
15968;SDS011;8085;53.472;9.794;2023-04-24T01:30:34;4.97;;;3.23;;
15968;SDS011;8085;53.472;9.794;2023-04-24T01:33:01;3.97;;;3.23;;
15968;SDS011;8085;53.472;9.794;2023-04-24T01:35:28;4.47;;;2.80;;
15968;SDS011;8085;53.472;9.794;2023-04-24T01:37:55;3.73;;;2.90;;
15968;SDS011;8085;53.472;9.794;2023-04-24T01:40:24;4.50;;;3.17;;
15968;SDS011;8085;53.472;9.794;2023-04-24T01:42:51;3.13;;;2.83;;
15968;SDS011;8085;53.472;9.794;2023-04-24T01:45:18;3.30;;;2.80;;
15968;SDS011;8085;53.472;9.794;2023-04-24T01:47:45;3.50;;;2.57;;
15968;SDS011;8085;53.472;9.794;2023-04-24T01:50:13;3.20;;;2.80;;
15968;SDS011;8085;53.472;9.794;2023-04-24T01:52:41;3.37;;;2.70;;
15968;SDS011;8085;53.472;9.794;2023-04-24T01:55:08;3.90;;;2.80;;
15968;SDS011;8085;53.472;9.794;2023-04-24T01:57:37;3.60;;;2.80;;
15968;SDS011;8085;53.472;9.794;2023-04-24T02:00:05;4.40;;;2.00;;
15968;SDS011;8085;53.472;9.794;2023-04-24T02:02:32;3.67;;;2.40;;
15968;SDS011;8085;53.472;9.794;2023-04-24T02:05:00;2.73;;;2.33;;
15968;SDS011;8085;53.472;9.794;2023-04-24T02:07:27;2.57;;;2.13;;
15968;SDS011;8085;53.472;9.794;2023-04-24T02:09:54;2.60;;;2.00;;
15968;SDS011;8085;53.472;9.794;2023-04-24T02:12:21;2.83;;;2.27;;
15968;SDS011;8085;53.472;9.794;2023-04-24T02:14:49;4.73;;;2.40;;
15968;SDS011;8085;53.472;9.794;2023-04-24T02:17:16;2.73;;;2.20;;
15968;SDS011;8085;53.472;9.794;2023-04-24T02:19:44;3.33;;;2.80;;
15968;SDS011;8085;53.472;9.794;2023-04-24T02:22:10;2.67;;;2.47;;
15968;SDS011;8085;53.472;9.794;2023-04-24T02:24:37;2.60;;;2.40;;
15968;SDS011;8085;53.472;9.794;2023-04-24T02:27:05;2.80;;;2.53;;
15968;SDS011;8085;53.472;9.794;2023-04-24T02:29:31;2.70;;;2.50;;
15968;SDS011;8085;53.472;9.794;2023-04-24T02:32:00;3.37;;;2.57;;
15968;SDS011;8085;53.472;9.794;2023-04-24T02:34:26;2.80;;;2.33;;
15968;SDS011;8085;53.472;9.794;2023-04-24T02:36:53;2.60;;;2.40;;
15968;SDS011;8085;53.472;9.794;2023-04-24T02:39:20;2.57;;;2.37;;
15968;SDS011;8085;53.472;9.794;2023-04-24T02:41:47;3.00;;;2.50;;
15968;SDS011;8085;53.472;9.794;2023-04-24T02:44:14;2.60;;;2.20;;
15968;SDS011;8085;53.472;9.794;2023-04-24T02:46:42;3.07;;;2.60;;
15968;SDS011;8085;53.472;9.794;2023-04-24T02:49:11;2.33;;;2.13;;
15968;SDS011;8085;53.472;9.794;2023-04-24T02:51:37;3.33;;;2.40;;
15968;SDS011;8085;53.472;9.794;2023-04-24T02:54:06;2.50;;;2.20;;
15968;SDS011;8085;53.472;9.794;2023-04-24T02:56:34;2.97;;;2.10;;
15968;SDS011;8085;53.472;9.794;2023-04-24T02:59:01;2.40;;;1.93;;
15968;SDS011;8085;53.472;9.794;2023-04-24T03:01:28;2.50;;;2.00;;
15968;SDS011;8085;53.472;9.794;2023-04-24T03:03:54;3.10;;;2.00;;
15968;SDS011;8085;53.472;9.794;2023-04-24T03:06:23;4.37;;;1.97;;
15968;SDS011;8085;53.472;9.794;2023-04-24T03:08:49;3.73;;;2.00;;
15968;SDS011;8085;53.472;9.794;2023-04-24T03:11:16;3.13;;;2.20;;
15968;SDS011;8085;53.472;9.794;2023-04-24T03:13:43;2.53;;;1.90;;
15968;SDS011;8085;53.472;9.794;2023-04-24T03:16:10;2.17;;;1.97;;
15968;SDS011;8085;53.472;9.794;2023-04-24T03:18:37;2.97;;;1.70;;
15968;SDS011;8085;53.472;9.794;2023-04-24T03:21:04;2.37;;;1.60;;
15968;SDS011;8085;53.472;9.794;2023-04-24T03:23:33;2.00;;;1.67;;
15968;SDS011;8085;53.472;9.794;2023-04-24T03:26:00;2.00;;;1.77;;
15968;SDS011;8085;53.472;9.794;2023-04-24T03:28:27;3.13;;;1.90;;
15968;SDS011;8085;53.472;9.794;2023-04-24T03:30:54;2.50;;;1.70;;
15968;SDS011;8085;53.472;9.794;2023-04-24T03:33:21;3.83;;;1.73;;
15968;SDS011;8085;53.472;9.794;2023-04-24T03:35:47;2.00;;;1.70;;
15968;SDS011;8085;53.472;9.794;2023-04-24T03:38:14;1.90;;;1.70;;
15968;SDS011;8085;53.472;9.794;2023-04-24T03:40:43;2.23;;;1.53;;
15968;SDS011;8085;53.472;9.794;2023-04-24T03:43:09;2.27;;;1.57;;
15968;SDS011;8085;53.472;9.794;2023-04-24T03:45:36;2.83;;;1.67;;
15968;SDS011;8085;53.472;9.794;2023-04-24T03:48:03;2.00;;;1.80;;
15968;SDS011;8085;53.472;9.794;2023-04-24T03:50:30;2.07;;;1.83;;
15968;SDS011;8085;53.472;9.794;2023-04-24T03:52:57;1.87;;;1.67;;
15968;SDS011;8085;53.472;9.794;2023-04-24T03:55:24;2.00;;;1.70;;
15968;SDS011;8085;53.472;9.794;2023-04-24T03:57:52;1.60;;;1.50;;
15968;SDS011;8085;53.472;9.794;2023-04-24T04:00:19;1.87;;;1.67;;
15968;SDS011;8085;53.472;9.794;2023-04-24T04:02:46;2.00;;;1.60;;
15968;SDS011;8085;53.472;9.794;2023-04-24T04:05:13;3.80;;;1.60;;
15968;SDS011;8085;53.472;9.794;2023-04-24T04:07:40;2.97;;;1.73;;
15968;SDS011;8085;53.472;9.794;2023-04-24T04:10:07;1.77;;;1.60;;
15968;SDS011;8085;53.472;9.794;2023-04-24T04:12:34;2.40;;;1.80;;
15968;SDS011;8085;53.472;9.794;2023-04-24T04:15:03;4.10;;;1.80;;
15968;SDS011;8085;53.472;9.794;2023-04-24T04:17:31;1.53;;;1.43;;
15968;SDS011;8085;53.472;9.794;2023-04-24T04:19:58;1.63;;;1.53;;
15968;SDS011;8085;53.472;9.794;2023-04-24T04:22:26;1.80;;;1.60;;
15968;SDS011;8085;53.472;9.794;2023-04-24T04:24:53;1.97;;;1.50;;
15968;SDS011;8085;53.472;9.794;2023-04-24T04:27:19;2.60;;;1.57;;
15968;SDS011;8085;53.472;9.794;2023-04-24T04:29:46;3.03;;;1.60;;
15968;SDS011;8085;53.472;9.794;2023-04-24T04:32:15;2.27;;;1.90;;
15968;SDS011;8085;53.472;9.794;2023-04-24T04:34:42;3.53;;;1.53;;
15968;SDS011;8085;53.472;9.794;2023-04-24T04:37:10;2.27;;;1.60;;
15968;SDS011;8085;53.472;9.794;2023-04-24T04:39:37;1.70;;;1.50;;
15968;SDS011;8085;53.472;9.794;2023-04-24T04:42:04;2.97;;;1.90;;
15968;SDS011;8085;53.472;9.794;2023-04-24T04:44:31;1.67;;;1.47;;
15968;SDS011;8085;53.472;9.794;2023-04-24T04:47:00;2.20;;;1.40;;
15968;SDS011;8085;53.472;9.794;2023-04-24T04:49:32;3.03;;;1.70;;
15968;SDS011;8085;53.472;9.794;2023-04-24T04:51:59;2.70;;;1.70;;
15968;SDS011;8085;53.472;9.794;2023-04-24T04:54:26;2.07;;;1.30;;
15968;SDS011;8085;53.472;9.794;2023-04-24T04:56:53;1.47;;;1.23;;
15968;SDS011;8085;53.472;9.794;2023-04-24T04:59:20;1.97;;;1.60;;
15968;SDS011;8085;53.472;9.794;2023-04-24T05:01:47;3.60;;;1.47;;
15968;SDS011;8085;53.472;9.794;2023-04-24T05:04:14;1.60;;;1.33;;
15968;SDS011;8085;53.472;9.794;2023-04-24T05:06:42;2.87;;;1.60;;
15968;SDS011;8085;53.472;9.794;2023-04-24T05:09:12;2.33;;;1.30;;
15968;SDS011;8085;53.472;9.794;2023-04-24T05:11:39;3.07;;;1.10;;
15968;SDS011;8085;53.472;9.794;2023-04-24T05:14:06;1.00;;;0.90;;
15968;SDS011;8085;53.472;9.794;2023-04-24T05:16:33;1.47;;;1.23;;
15968;SDS011;8085;53.472;9.794;2023-04-24T05:18:59;1.30;;;1.20;;
15968;SDS011;8085;53.472;9.794;2023-04-24T05:21:26;2.83;;;1.30;;
15968;SDS011;8085;53.472;9.794;2023-04-24T05:23:55;1.20;;;1.10;;
15968;SDS011;8085;53.472;9.794;2023-04-24T05:26:22;1.53;;;1.17;;
15968;SDS011;8085;53.472;9.794;2023-04-24T05:28:49;2.10;;;1.00;;
15968;SDS011;8085;53.472;9.794;2023-04-24T05:31:16;3.37;;;1.10;;
15968;SDS011;8085;53.472;9.794;2023-04-24T05:33:43;1.80;;;1.10;;
15968;SDS011;8085;53.472;9.794;2023-04-24T05:36:10;1.40;;;1.10;;
15968;SDS011;8085;53.472;9.794;2023-04-24T05:38:37;1.53;;;1.10;;
15968;SDS011;8085;53.472;9.794;2023-04-24T05:41:05;1.37;;;1.10;;
15968;SDS011;8085;53.472;9.794;2023-04-24T05:43:32;1.30;;;1.10;;
15968;SDS011;8085;53.472;9.794;2023-04-24T05:45:59;2.07;;;1.00;;
15968;SDS011;8085;53.472;9.794;2023-04-24T05:48:26;1.47;;;1.30;;
15968;SDS011;8085;53.472;9.794;2023-04-24T05:50:53;2.10;;;1.10;;
15968;SDS011;8085;53.472;9.794;2023-04-24T05:53:20;1.70;;;1.13;;
15968;SDS011;8085;53.472;9.794;2023-04-24T05:55:47;1.30;;;1.20;;
15968;SDS011;8085;53.472;9.794;2023-04-24T05:58:16;2.27;;;1.13;;
15968;SDS011;8085;53.472;9.794;2023-04-24T06:00:43;1.97;;;1.30;;
15968;SDS011;8085;53.472;9.794;2023-04-24T06:03:11;1.83;;;1.20;;
15968;SDS011;8085;53.472;9.794;2023-04-24T06:05:38;2.33;;;1.77;;
15968;SDS011;8085;53.472;9.794;2023-04-24T06:08:08;1.73;;;1.33;;
15968;SDS011;8085;53.472;9.794;2023-04-24T06:10:38;1.73;;;1.63;;
15968;SDS011;8085;53.472;9.794;2023-04-24T06:13:05;1.43;;;1.30;;
15968;SDS011;8085;53.472;9.794;2023-04-24T06:15:35;1.90;;;1.30;;
15968;SDS011;8085;53.472;9.794;2023-04-24T06:18:03;1.57;;;1.20;;
15968;SDS011;8085;53.472;9.794;2023-04-24T06:20:30;1.60;;;1.50;;
15968;SDS011;8085;53.472;9.794;2023-04-24T06:22:57;1.57;;;1.17;;
15968;SDS011;8085;53.472;9.794;2023-04-24T06:25:24;1.83;;;1.27;;
15968;SDS011;8085;53.472;9.794;2023-04-24T06:27:52;1.83;;;1.40;;
15968;SDS011;8085;53.472;9.794;2023-04-24T06:30:20;1.60;;;1.43;;
15968;SDS011;8085;53.472;9.794;2023-04-24T06:32:49;2.93;;;1.70;;
15968;SDS011;8085;53.472;9.794;2023-04-24T06:35:16;1.90;;;1.70;;
15968;SDS011;8085;53.472;9.794;2023-04-24T06:37:43;2.67;;;1.80;;
15968;SDS011;8085;53.472;9.794;2023-04-24T06:40:10;2.70;;;1.90;;
15968;SDS011;8085;53.472;9.794;2023-04-24T06:42:38;2.90;;;1.87;;
15968;SDS011;8085;53.472;9.794;2023-04-24T06:45:05;2.60;;;1.90;;
15968;SDS011;8085;53.472;9.794;2023-04-24T06:47:32;3.97;;;2.10;;
15968;SDS011;8085;53.472;9.794;2023-04-24T06:50:01;5.40;;;1.80;;
15968;SDS011;8085;53.472;9.794;2023-04-24T06:52:28;3.37;;;2.23;;
15968;SDS011;8085;53.472;9.794;2023-04-24T06:54:59;2.23;;;2.03;;
15968;SDS011;8085;53.472;9.794;2023-04-24T06:57:27;2.80;;;2.20;;
15968;SDS011;8085;53.472;9.794;2023-04-24T06:59:54;3.30;;;2.50;;
15968;SDS011;8085;53.472;9.794;2023-04-24T07:02:22;2.43;;;2.23;;
15968;SDS011;8085;53.472;9.794;2023-04-24T07:04:49;5.17;;;2.50;;
15968;SDS011;8085;53.472;9.794;2023-04-24T07:07:18;2.93;;;2.50;;
15968;SDS011;8085;53.472;9.794;2023-04-24T07:09:45;4.27;;;2.90;;
15968;SDS011;8085;53.472;9.794;2023-04-24T07:12:13;3.53;;;2.50;;
15968;SDS011;8085;53.472;9.794;2023-04-24T07:14:42;3.13;;;2.83;;
15968;SDS011;8085;53.472;9.794;2023-04-24T07:17:09;3.00;;;2.70;;
15968;SDS011;8085;53.472;9.794;2023-04-24T07:19:38;4.00;;;2.83;;
15968;SDS011;8085;53.472;9.794;2023-04-24T07:22:05;3.63;;;3.10;;
15968;SDS011;8085;53.472;9.794;2023-04-24T07:24:33;3.13;;;2.83;;
15968;SDS011;8085;53.472;9.794;2023-04-24T07:27:00;3.60;;;3.10;;
15968;SDS011;8085;53.472;9.794;2023-04-24T07:29:28;3.47;;;2.90;;
15968;SDS011;8085;53.472;9.794;2023-04-24T07:31:55;4.03;;;3.63;;
15968;SDS011;8085;53.472;9.794;2023-04-24T07:34:22;4.43;;;3.43;;
15968;SDS011;8085;53.472;9.794;2023-04-24T07:36:49;4.40;;;3.40;;
15968;SDS011;8085;53.472;9.794;2023-04-24T07:39:17;4.30;;;3.47;;
15968;SDS011;8085;53.472;9.794;2023-04-24T07:41:46;3.53;;;3.23;;
15968;SDS011;8085;53.472;9.794;2023-04-24T07:44:13;6.07;;;4.00;;
15968;SDS011;8085;53.472;9.794;2023-04-24T07:46:41;4.57;;;3.67;;
15968;SDS011;8085;53.472;9.794;2023-04-24T07:49:08;4.40;;;4.00;;
15968;SDS011;8085;53.472;9.794;2023-04-24T07:51:36;4.53;;;4.00;;
15968;SDS011;8085;53.472;9.794;2023-04-24T07:54:04;4.30;;;3.80;;
15968;SDS011;8085;53.472;9.794;2023-04-24T07:56:32;5.17;;;4.10;;
15968;SDS011;8085;53.472;9.794;2023-04-24T07:59:01;5.37;;;4.03;;
15968;SDS011;8085;53.472;9.794;2023-04-24T08:01:28;5.13;;;3.70;;
15968;SDS011;8085;53.472;9.794;2023-04-24T08:03:55;4.70;;;4.20;;
15968;SDS011;8085;53.472;9.794;2023-04-24T08:06:22;4.77;;;4.23;;
15968;SDS011;8085;53.472;9.794;2023-04-24T08:08:53;4.67;;;4.13;;
15968;SDS011;8085;53.472;9.794;2023-04-24T08:11:20;4.90;;;4.40;;
15968;SDS011;8085;53.472;9.794;2023-04-24T08:13:47;4.43;;;3.93;;
15968;SDS011;8085;53.472;9.794;2023-04-24T08:16:15;6.13;;;3.73;;
15968;SDS011;8085;53.472;9.794;2023-04-24T08:18:42;6.67;;;4.10;;
15968;SDS011;8085;53.472;9.794;2023-04-24T08:21:12;4.90;;;4.17;;
15968;SDS011;8085;53.472;9.794;2023-04-24T08:23:42;5.40;;;4.40;;
15968;SDS011;8085;53.472;9.794;2023-04-24T08:26:09;5.40;;;4.30;;
15968;SDS011;8085;53.472;9.794;2023-04-24T08:28:37;5.07;;;4.33;;
15968;SDS011;8085;53.472;9.794;2023-04-24T08:31:04;6.43;;;4.60;;
15968;SDS011;8085;53.472;9.794;2023-04-24T08:33:32;6.57;;;4.63;;
15968;SDS011;8085;53.472;9.794;2023-04-24T08:36:00;7.27;;;5.07;;
15968;SDS011;8085;53.472;9.794;2023-04-24T08:38:28;5.30;;;4.80;;
15968;SDS011;8085;53.472;9.794;2023-04-24T08:40:56;6.60;;;5.30;;
15968;SDS011;8085;53.472;9.794;2023-04-24T08:43:24;6.10;;;5.27;;
15968;SDS011;8085;53.472;9.794;2023-04-24T08:45:52;8.27;;;5.33;;
15968;SDS011;8085;53.472;9.794;2023-04-24T08:48:19;6.10;;;5.50;;
15968;SDS011;8085;53.472;9.794;2023-04-24T08:50:49;6.00;;;5.40;;
15968;SDS011;8085;53.472;9.794;2023-04-24T08:53:17;10.10;;;4.90;;
15968;SDS011;8085;53.472;9.794;2023-04-24T08:55:46;6.13;;;5.27;;
15968;SDS011;8085;53.472;9.794;2023-04-24T08:58:15;5.97;;;5.37;;
15968;SDS011;8085;53.472;9.794;2023-04-24T09:00:43;7.20;;;5.40;;
15968;SDS011;8085;53.472;9.794;2023-04-24T09:03:13;6.37;;;4.53;;
15968;SDS011;8085;53.472;9.794;2023-04-24T09:05:41;5.60;;;4.90;;
15968;SDS011;8085;53.472;9.794;2023-04-24T09:08:12;5.90;;;4.83;;
15968;SDS011;8085;53.472;9.794;2023-04-24T09:10:40;6.00;;;5.10;;
15968;SDS011;8085;53.472;9.794;2023-04-24T09:13:07;5.00;;;4.50;;
15968;SDS011;8085;53.472;9.794;2023-04-24T09:15:35;6.00;;;4.60;;
15968;SDS011;8085;53.472;9.794;2023-04-24T09:18:04;6.53;;;5.53;;
15968;SDS011;8085;53.472;9.794;2023-04-24T09:20:34;6.43;;;5.80;;
15968;SDS011;8085;53.472;9.794;2023-04-24T09:23:01;6.20;;;4.93;;
15968;SDS011;8085;53.472;9.794;2023-04-24T09:25:32;6.47;;;5.67;;
15968;SDS011;8085;53.472;9.794;2023-04-24T09:28:01;5.73;;;5.13;;
15968;SDS011;8085;53.472;9.794;2023-04-24T09:30:29;5.73;;;4.90;;
15968;SDS011;8085;53.472;9.794;2023-04-24T09:33:09;6.17;;;5.40;;
15968;SDS011;8085;53.472;9.794;2023-04-24T09:35:40;9.20;;;5.27;;
15968;SDS011;8085;53.472;9.794;2023-04-24T09:38:08;6.17;;;5.30;;
15968;SDS011;8085;53.472;9.794;2023-04-24T09:40:37;5.87;;;5.27;;
15968;SDS011;8085;53.472;9.794;2023-04-24T09:43:04;6.40;;;5.73;;
15968;SDS011;8085;53.472;9.794;2023-04-24T09:45:36;9.57;;;6.30;;
15968;SDS011;8085;53.472;9.794;2023-04-24T09:48:04;8.23;;;6.50;;
15968;SDS011;8085;53.472;9.794;2023-04-24T09:50:33;7.63;;;6.80;;
15968;SDS011;8085;53.472;9.794;2023-04-24T09:53:01;7.80;;;7.00;;
15968;SDS011;8085;53.472;9.794;2023-04-24T09:55:30;8.73;;;7.00;;
15968;SDS011;8085;53.472;9.794;2023-04-24T09:58:00;8.73;;;7.03;;
15968;SDS011;8085;53.472;9.794;2023-04-24T10:00:30;8.63;;;7.60;;
15968;SDS011;8085;53.472;9.794;2023-04-24T10:02:58;11.93;;;7.73;;
15968;SDS011;8085;53.472;9.794;2023-04-24T10:05:27;9.27;;;7.40;;
15968;SDS011;8085;53.472;9.794;2023-04-24T10:07:56;11.23;;;7.87;;
15968;SDS011;8085;53.472;9.794;2023-04-24T10:10:24;12.97;;;7.77;;
15968;SDS011;8085;53.472;9.794;2023-04-24T10:12:51;10.80;;;8.10;;
15968;SDS011;8085;53.472;9.794;2023-04-24T10:15:21;11.00;;;8.43;;
15968;SDS011;8085;53.472;9.794;2023-04-24T10:17:51;13.30;;;8.37;;
15968;SDS011;8085;53.472;9.794;2023-04-24T10:20:19;11.17;;;8.37;;
15968;SDS011;8085;53.472;9.794;2023-04-24T10:22:48;12.47;;;8.70;;
15968;SDS011;8085;53.472;9.794;2023-04-24T10:25:19;11.63;;;9.13;;
15968;SDS011;8085;53.472;9.794;2023-04-24T10:27:48;11.70;;;9.47;;
15968;SDS011;8085;53.472;9.794;2023-04-24T10:30:16;12.17;;;8.10;;
15968;SDS011;8085;53.472;9.794;2023-04-24T10:32:45;10.80;;;8.50;;
15968;SDS011;8085;53.472;9.794;2023-04-24T10:35:13;10.67;;;9.00;;
15968;SDS011;8085;53.472;9.794;2023-04-24T10:37:43;13.50;;;9.23;;
15968;SDS011;8085;53.472;9.794;2023-04-24T10:40:17;10.33;;;8.53;;
15968;SDS011;8085;53.472;9.794;2023-04-24T10:42:46;11.53;;;9.20;;
15968;SDS011;8085;53.472;9.794;2023-04-24T10:45:18;11.33;;;8.90;;
15968;SDS011;8085;53.472;9.794;2023-04-24T10:47:55;11.00;;;8.73;;
15968;SDS011;8085;53.472;9.794;2023-04-24T10:50:27;11.53;;;8.53;;
15968;SDS011;8085;53.472;9.794;2023-04-24T10:53:05;9.40;;;8.37;;
15968;SDS011;8085;53.472;9.794;2023-04-24T10:55:40;12.03;;;8.37;;
15968;SDS011;8085;53.472;9.794;2023-04-24T10:58:09;12.47;;;8.63;;
15968;SDS011;8085;53.472;9.794;2023-04-24T11:00:40;10.13;;;8.30;;
15968;SDS011;8085;53.472;9.794;2023-04-24T11:03:24;10.87;;;8.30;;
15968;SDS011;8085;53.472;9.794;2023-04-24T11:05:54;11.53;;;8.83;;
15968;SDS011;8085;53.472;9.794;2023-04-24T11:08:23;9.50;;;7.27;;
15968;SDS011;8085;53.472;9.794;2023-04-24T11:10:59;11.43;;;7.83;;
15968;SDS011;8085;53.472;9.794;2023-04-24T11:16:42;9.77;;;7.67;;
15968;SDS011;8085;53.472;9.794;2023-04-24T11:19:18;9.60;;;7.50;;
15968;SDS011;8085;53.472;9.794;2023-04-24T11:21:54;10.90;;;7.10;;
15968;SDS011;8085;53.472;9.794;2023-04-24T11:24:23;8.63;;;7.70;;
15968;SDS011;8085;53.472;9.794;2023-04-24T11:26:56;8.47;;;6.93;;
15968;SDS011;8085;53.472;9.794;2023-04-24T11:29:38;8.33;;;7.17;;
15968;SDS011;8085;53.472;9.794;2023-04-24T11:32:16;11.03;;;7.30;;
15968;SDS011;8085;53.472;9.794;2023-04-24T11:34:47;9.50;;;6.67;;
15968;SDS011;8085;53.472;9.794;2023-04-24T11:37:15;6.97;;;5.80;;
15968;SDS011;8085;53.472;9.794;2023-04-24T11:39:42;7.90;;;6.13;;
15968;SDS011;8085;53.472;9.794;2023-04-24T11:42:09;6.93;;;5.33;;
15968;SDS011;8085;53.472;9.794;2023-04-24T11:44:37;7.23;;;6.10;;
15968;SDS011;8085;53.472;9.794;2023-04-24T11:47:04;9.03;;;5.90;;
15968;SDS011;8085;53.472;9.794;2023-04-24T11:49:32;9.67;;;6.23;;
15968;SDS011;8085;53.472;9.794;2023-04-24T11:52:00;6.20;;;5.40;;
15968;SDS011;8085;53.472;9.794;2023-04-24T11:54:28;6.50;;;5.43;;
15968;SDS011;8085;53.472;9.794;2023-04-24T11:56:55;6.43;;;5.43;;
15968;SDS011;8085;53.472;9.794;2023-04-24T11:59:23;7.57;;;6.07;;
15968;SDS011;8085;53.472;9.794;2023-04-24T12:01:50;6.60;;;5.57;;
15968;SDS011;8085;53.472;9.794;2023-04-24T12:04:17;10.87;;;6.03;;
15968;SDS011;8085;53.472;9.794;2023-04-24T12:07:02;8.83;;;5.93;;
15968;SDS011;8085;53.472;9.794;2023-04-24T12:09:39;9.10;;;6.47;;
15968;SDS011;8085;53.472;9.794;2023-04-24T12:12:07;8.63;;;6.33;;
15968;SDS011;8085;53.472;9.794;2023-04-24T12:14:44;8.80;;;6.80;;
15968;SDS011;8085;53.472;9.794;2023-04-24T12:17:14;7.57;;;6.43;;
15968;SDS011;8085;53.472;9.794;2023-04-24T12:19:45;8.83;;;6.70;;
15968;SDS011;8085;53.472;9.794;2023-04-24T12:22:14;9.93;;;7.00;;
15968;SDS011;8085;53.472;9.794;2023-04-24T12:24:57;8.13;;;6.00;;
15968;SDS011;8085;53.472;9.794;2023-04-24T12:27:26;7.33;;;6.00;;
15968;SDS011;8085;53.472;9.794;2023-04-24T12:29:55;7.83;;;5.70;;
15968;SDS011;8085;53.472;9.794;2023-04-24T12:32:23;6.40;;;5.20;;
15968;SDS011;8085;53.472;9.794;2023-04-24T12:34:53;6.50;;;5.70;;
15968;SDS011;8085;53.472;9.794;2023-04-24T12:37:24;6.60;;;5.73;;
15968;SDS011;8085;53.472;9.794;2023-04-24T12:39:58;7.47;;;5.53;;
15968;SDS011;8085;53.472;9.794;2023-04-24T12:42:26;6.90;;;5.47;;
15968;SDS011;8085;53.472;9.794;2023-04-24T12:44:56;8.20;;;5.37;;
15968;SDS011;8085;53.472;9.794;2023-04-24T12:47:26;5.90;;;5.03;;
15968;SDS011;8085;53.472;9.794;2023-04-24T12:49:54;5.97;;;4.93;;
15968;SDS011;8085;53.472;9.794;2023-04-24T12:52:26;6.97;;;4.90;;
15968;SDS011;8085;53.472;9.794;2023-04-24T12:54:55;5.10;;;4.60;;
15968;SDS011;8085;53.472;9.794;2023-04-24T12:57:24;5.50;;;5.00;;
15968;SDS011;8085;53.472;9.794;2023-04-24T12:59:53;4.67;;;4.13;;
15968;SDS011;8085;53.472;9.794;2023-04-24T13:02:20;5.00;;;4.43;;
15968;SDS011;8085;53.472;9.794;2023-04-24T13:04:47;4.80;;;4.23;;
15968;SDS011;8085;53.472;9.794;2023-04-24T13:07:15;6.77;;;5.20;;
15968;SDS011;8085;53.472;9.794;2023-04-24T13:09:44;7.13;;;4.87;;
15968;SDS011;8085;53.472;9.794;2023-04-24T13:12:12;5.53;;;4.90;;
15968;SDS011;8085;53.472;9.794;2023-04-24T13:14:48;5.77;;;4.53;;
15968;SDS011;8085;53.472;9.794;2023-04-24T13:17:15;6.73;;;5.00;;
15968;SDS011;8085;53.472;9.794;2023-04-24T13:19:43;6.87;;;4.70;;
15968;SDS011;8085;53.472;9.794;2023-04-24T13:22:11;5.73;;;4.60;;
15968;SDS011;8085;53.472;9.794;2023-04-24T13:24:38;5.73;;;4.50;;
15968;SDS011;8085;53.472;9.794;2023-04-24T13:27:08;6.73;;;4.87;;
15968;SDS011;8085;53.472;9.794;2023-04-24T13:29:35;5.23;;;4.50;;
15968;SDS011;8085;53.472;9.794;2023-04-24T13:32:03;6.90;;;5.10;;
15968;SDS011;8085;53.472;9.794;2023-04-24T13:34:30;5.60;;;5.10;;
15968;SDS011;8085;53.472;9.794;2023-04-24T13:37:01;5.83;;;5.00;;
15968;SDS011;8085;53.472;9.794;2023-04-24T13:39:31;5.10;;;4.17;;
15968;SDS011;8085;53.472;9.794;2023-04-24T13:41:58;4.97;;;4.47;;
15968;SDS011;8085;53.472;9.794;2023-04-24T13:44:27;6.40;;;4.47;;
15968;SDS011;8085;53.472;9.794;2023-04-24T13:46:57;4.83;;;4.33;;
15968;SDS011;8085;53.472;9.794;2023-04-24T13:49:24;4.20;;;3.77;;
15968;SDS011;8085;53.472;9.794;2023-04-24T13:51:57;5.73;;;3.83;;
15968;SDS011;8085;53.472;9.794;2023-04-24T13:54:30;5.60;;;4.00;;
15968;SDS011;8085;53.472;9.794;2023-04-24T13:57:00;4.53;;;4.10;;
15968;SDS011;8085;53.472;9.794;2023-04-24T13:59:29;4.50;;;4.10;;
15968;SDS011;8085;53.472;9.794;2023-04-24T14:01:56;4.70;;;4.10;;
15968;SDS011;8085;53.472;9.794;2023-04-24T14:04:23;4.77;;;4.10;;
15968;SDS011;8085;53.472;9.794;2023-04-24T14:06:50;5.13;;;4.23;;
15968;SDS011;8085;53.472;9.794;2023-04-24T14:09:17;4.70;;;4.27;;
15968;SDS011;8085;53.472;9.794;2023-04-24T14:11:44;5.77;;;4.30;;
15968;SDS011;8085;53.472;9.794;2023-04-24T14:14:11;4.77;;;3.93;;
15968;SDS011;8085;53.472;9.794;2023-04-24T14:16:40;4.53;;;4.00;;
15968;SDS011;8085;53.472;9.794;2023-04-24T14:19:07;6.63;;;4.60;;
15968;SDS011;8085;53.472;9.794;2023-04-24T14:21:34;5.10;;;4.50;;
15968;SDS011;8085;53.472;9.794;2023-04-24T14:24:08;6.20;;;5.60;;
15968;SDS011;8085;53.472;9.794;2023-04-24T14:26:40;6.00;;;5.40;;
15968;SDS011;8085;53.472;9.794;2023-04-24T14:29:07;5.90;;;5.40;;
15968;SDS011;8085;53.472;9.794;2023-04-24T14:31:36;6.20;;;5.30;;
15968;SDS011;8085;53.472;9.794;2023-04-24T14:34:05;6.67;;;5.90;;
15968;SDS011;8085;53.472;9.794;2023-04-24T14:36:37;6.80;;;6.07;;
15968;SDS011;8085;53.472;9.794;2023-04-24T14:39:06;7.33;;;5.83;;
15968;SDS011;8085;53.472;9.794;2023-04-24T14:41:36;6.83;;;6.13;;
15968;SDS011;8085;53.472;9.794;2023-04-24T14:44:04;7.43;;;6.53;;
15968;SDS011;8085;53.472;9.794;2023-04-24T14:46:31;8.13;;;6.77;;
15968;SDS011;8085;53.472;9.794;2023-04-24T14:48:58;7.90;;;7.00;;
15968;SDS011;8085;53.472;9.794;2023-04-24T14:51:27;6.90;;;6.20;;
15968;SDS011;8085;53.472;9.794;2023-04-24T14:53:54;6.90;;;6.10;;
15968;SDS011;8085;53.472;9.794;2023-04-24T14:56:22;7.77;;;6.50;;
15968;SDS011;8085;53.472;9.794;2023-04-24T14:58:49;7.27;;;6.33;;
15968;SDS011;8085;53.472;9.794;2023-04-24T15:01:16;7.00;;;6.13;;
15968;SDS011;8085;53.472;9.794;2023-04-24T15:03:44;6.70;;;5.43;;
15968;SDS011;8085;53.472;9.794;2023-04-24T15:06:11;4.27;;;3.83;;
15968;SDS011;8085;53.472;9.794;2023-04-24T15:08:39;3.63;;;2.90;;
15968;SDS011;8085;53.472;9.794;2023-04-24T15:11:08;3.17;;;2.40;;